createdAt,value
2023-01-05T00:01:03.504Z,0.37
2023-01-05T00:03:31.490Z,0.67
2023-01-05T00:06:02.768Z,0.10
2023-01-05T00:08:37.116Z,0.30
2023-01-05T00:11:23.865Z,0.10
2023-01-05T00:14:09.424Z,0.37
2023-01-05T00:16:54.885Z,0.20
2023-01-05T00:19:40.067Z,0.17
2023-01-05T00:22:34.928Z,1.00
2023-01-05T00:25:11.699Z,0.30
2023-01-05T00:27:40.832Z,0.47
2023-01-05T00:30:10.136Z,0.20
2023-01-05T00:32:37.909Z,1.30
2023-01-05T00:35:06.482Z,0.10
2023-01-05T00:37:36.315Z,0.10
2023-01-05T00:40:06.596Z,0.50
2023-01-05T00:42:34.519Z,0.23
2023-01-05T00:45:02.462Z,0.20
2023-01-05T00:47:30.256Z,0.50
2023-01-05T00:49:57.971Z,0.37
2023-01-05T00:52:25.726Z,0.73
2023-01-05T00:54:53.410Z,0.30
2023-01-05T00:57:22.600Z,0.57
2023-01-05T00:59:50.559Z,0.20
2023-01-05T01:02:18.517Z,0.10
2023-01-05T01:04:46.288Z,0.20
2023-01-05T01:07:14.008Z,0.30
2023-01-05T01:09:41.743Z,0.70
2023-01-05T01:12:09.533Z,0.40
2023-01-05T01:14:40.174Z,0.10
2023-01-05T01:17:08.097Z,0.10
2023-01-05T01:19:35.805Z,1.13
2023-01-05T01:22:03.719Z,0.60
2023-01-05T01:24:31.936Z,0.23
2023-01-05T01:26:59.722Z,0.70
2023-01-05T01:29:27.575Z,0.37
2023-01-05T01:31:56.744Z,0.47
2023-01-05T01:34:24.607Z,0.27
2023-01-05T01:36:52.306Z,0.73
2023-01-05T01:39:20.026Z,0.60
2023-01-05T01:41:48.147Z,0.97
2023-01-05T01:44:50.193Z,0.50
2023-01-05T01:47:24.188Z,0.90
2023-01-05T01:49:52.798Z,0.40
2023-01-05T01:52:22.944Z,0.30
2023-01-05T01:54:52.793Z,0.30
2023-01-05T01:57:22.130Z,0.63
2023-01-05T01:59:49.987Z,0.30
2023-01-05T02:02:24.286Z,0.53
2023-01-05T02:04:52.476Z,0.20
2023-01-05T02:07:20.323Z,2.57
2023-01-05T02:09:48.190Z,0.40
2023-01-05T02:12:32.756Z,0.70
2023-01-05T02:15:13.673Z,1.83
2023-01-05T02:17:53.987Z,0.60
2023-01-05T02:20:49.216Z,0.30
2023-01-05T02:24:10.673Z,0.90
2023-01-05T02:27:16.753Z,0.43
2023-01-05T02:30:05.006Z,0.63
2023-01-05T02:32:41.454Z,1.00
2023-01-05T02:35:16.887Z,1.20
2023-01-05T02:37:50.059Z,1.87
2023-01-05T02:40:23.291Z,1.17
2023-01-05T02:42:54.903Z,1.33
2023-01-05T02:45:24.125Z,1.27
2023-01-05T02:47:53.299Z,2.30
2023-01-05T02:50:24.449Z,1.07
2023-01-05T02:52:59.090Z,0.93
2023-01-05T02:55:33.582Z,4.97
2023-01-05T02:58:04.821Z,2.60
2023-01-05T03:00:37.603Z,1.30
2023-01-05T03:03:14.543Z,2.40
2023-01-05T03:05:49.562Z,2.17
2023-01-05T03:08:32.260Z,2.60
2023-01-05T03:11:20.988Z,2.10
2023-01-05T03:13:52.609Z,1.67
2023-01-05T03:16:24.346Z,4.70
2023-01-05T03:19:13.756Z,1.90
2023-01-05T03:22:00.209Z,4.40
2023-01-05T03:24:45.649Z,2.23
2023-01-05T03:27:32.221Z,1.70
2023-01-05T03:30:17.490Z,2.00
2023-01-05T03:33:07.415Z,1.13
2023-01-05T03:35:41.785Z,2.27
2023-01-05T03:38:20.317Z,2.03
2023-01-05T03:40:52.636Z,2.40
2023-01-05T03:43:21.341Z,0.90
2023-01-05T03:45:53.611Z,2.33
2023-01-05T03:48:22.201Z,1.07
2023-01-05T03:50:51.272Z,0.90
2023-01-05T03:53:19.059Z,1.37
2023-01-05T03:55:47.159Z,1.43
2023-01-05T03:58:14.919Z,1.27
2023-01-05T04:00:42.687Z,1.13
2023-01-05T04:03:10.991Z,3.80
2023-01-05T04:05:38.887Z,3.87
2023-01-05T04:08:08.144Z,10.07
2023-01-05T04:10:36.164Z,6.73
2023-01-05T04:13:03.951Z,11.97
2023-01-05T04:15:31.834Z,10.67
2023-01-05T04:17:59.668Z,9.43
2023-01-05T04:20:27.367Z,12.20
2023-01-05T04:22:55.239Z,4.83
2023-01-05T04:25:24.582Z,9.30
2023-01-05T04:27:52.477Z,15.43
2023-01-05T04:30:21.561Z,11.17
2023-01-05T04:32:49.468Z,9.00
2023-01-05T04:35:17.405Z,10.07
2023-01-05T04:37:46.189Z,12.90
2023-01-05T04:40:14.215Z,13.03
2023-01-05T04:42:43.495Z,14.13
2023-01-05T04:45:12.251Z,14.90
2023-01-05T04:47:40.266Z,13.30
2023-01-05T04:50:09.685Z,12.03
2023-01-05T04:52:37.491Z,10.27
2023-01-05T04:55:06.335Z,11.20
2023-01-05T04:57:34.528Z,10.53
2023-01-05T05:00:04.961Z,11.73
2023-01-05T05:02:34.042Z,12.03
2023-01-05T05:05:01.966Z,11.93
2023-01-05T05:07:29.772Z,13.07
2023-01-05T05:09:57.669Z,14.40
2023-01-05T05:12:25.484Z,9.43
2023-01-05T05:14:53.258Z,13.63
2023-01-05T05:17:22.773Z,13.43
2023-01-05T05:19:50.703Z,11.63
2023-01-05T05:22:19.717Z,9.00
2023-01-05T05:24:49.584Z,11.60
2023-01-05T05:27:17.340Z,10.03
2023-01-05T05:29:45.116Z,9.53
2023-01-05T05:32:14.837Z,10.33
2023-01-05T05:34:45.827Z,16.20
2023-01-05T05:37:13.524Z,10.70
2023-01-05T05:39:41.217Z,15.80
2023-01-05T05:42:08.948Z,13.80
2023-01-05T05:44:36.665Z,10.57
2023-01-05T05:47:09.709Z,15.30
2023-01-05T05:49:37.371Z,9.93
2023-01-05T05:52:06.516Z,11.60
2023-01-05T05:54:34.224Z,12.90
2023-01-05T05:57:02.086Z,12.47
2023-01-05T05:59:29.731Z,15.03
2023-01-05T06:01:57.568Z,17.33
2023-01-05T06:04:25.348Z,13.03
2023-01-05T06:06:53.089Z,11.17
2023-01-05T06:09:24.936Z,13.40
2023-01-05T06:11:52.764Z,7.13
2023-01-05T06:14:20.532Z,13.77
2023-01-05T06:16:48.337Z,11.53
2023-01-05T06:19:18.295Z,12.13
2023-01-05T06:21:46.019Z,9.47
2023-01-05T06:24:13.803Z,15.27
2023-01-05T06:26:42.893Z,9.63
2023-01-05T06:29:10.561Z,16.57
2023-01-05T06:31:38.325Z,15.53
2023-01-05T06:34:06.027Z,10.17
2023-01-05T06:36:33.766Z,9.10
2023-01-05T06:39:01.550Z,14.03
2023-01-05T06:41:29.376Z,11.83
2023-01-05T06:43:58.462Z,17.10
2023-01-05T06:46:26.192Z,10.53
2023-01-05T06:48:54.203Z,14.47
2023-01-05T06:51:22.017Z,13.60
2023-01-05T06:53:49.695Z,15.80
2023-01-05T06:56:17.420Z,13.27
2023-01-05T06:58:45.113Z,13.67
2023-01-05T07:01:14.197Z,12.87
2023-01-05T07:03:42.066Z,13.73
2023-01-05T07:06:14.629Z,14.10
2023-01-05T07:08:42.949Z,15.73
2023-01-05T07:11:10.643Z,18.07
2023-01-05T07:13:38.331Z,12.53
2023-01-05T07:16:06.609Z,12.07
2023-01-05T07:18:35.642Z,16.13
2023-01-05T07:21:03.294Z,15.97
2023-01-05T07:23:31.531Z,10.80
2023-01-05T07:26:01.875Z,13.87
2023-01-05T07:28:29.758Z,13.87
2023-01-05T07:30:57.624Z,17.60
2023-01-05T07:33:25.306Z,16.73
2023-01-05T07:35:54.370Z,16.00
2023-01-05T07:38:22.141Z,7.50
2023-01-05T07:40:49.832Z,10.17
2023-01-05T07:43:17.694Z,15.17
2023-01-05T07:45:45.460Z,18.37
2023-01-05T07:48:13.160Z,16.00
2023-01-05T07:50:40.877Z,11.67
2023-01-05T07:53:10.033Z,16.93
2023-01-05T07:55:37.654Z,11.20
2023-01-05T07:58:05.522Z,14.33
2023-01-05T08:00:33.348Z,12.47
2023-01-05T08:03:01.081Z,9.70
2023-01-05T08:05:33.914Z,15.07
2023-01-05T08:08:01.677Z,8.83
2023-01-05T08:10:30.710Z,12.93
2023-01-05T08:13:21.372Z,16.10
2023-01-05T08:15:51.288Z,15.23
2023-01-05T08:18:19.715Z,10.20
2023-01-05T08:20:52.097Z,14.07
2023-01-05T08:23:26.148Z,9.77
2023-01-05T08:25:56.111Z,14.80
2023-01-05T08:28:28.402Z,10.17
2023-01-05T08:31:05.551Z,11.13
2023-01-05T08:33:33.520Z,13.37
2023-01-05T08:36:01.298Z,15.20
2023-01-05T08:38:29.142Z,15.67
2023-01-05T08:41:00.857Z,8.83
2023-01-05T08:43:28.971Z,11.83
2023-01-05T08:45:57.133Z,9.60
2023-01-05T08:48:24.980Z,8.70
2023-01-05T08:50:52.664Z,8.60
2023-01-05T08:53:20.316Z,7.43
2023-01-05T08:55:48.008Z,13.37
2023-01-05T08:58:17.088Z,12.67
2023-01-05T09:00:44.880Z,10.93
2023-01-05T09:03:12.705Z,14.20
2023-01-05T09:05:40.451Z,15.83
2023-01-05T09:08:11.247Z,12.00
2023-01-05T09:10:39.094Z,14.37
2023-01-05T09:13:06.851Z,14.53
2023-01-05T09:15:36.132Z,15.70
2023-01-05T09:18:03.882Z,12.13
2023-01-05T09:20:37.713Z,10.80
2023-01-05T09:23:07.332Z,12.60
2023-01-05T09:25:35.060Z,10.17
2023-01-05T09:28:02.775Z,12.57
2023-01-05T09:30:34.462Z,14.00
2023-01-05T09:33:09.544Z,15.93
2023-01-05T09:35:37.280Z,13.33
2023-01-05T09:38:04.924Z,13.00
2023-01-05T09:40:38.759Z,19.10
2023-01-05T09:43:07.439Z,17.50
2023-01-05T09:45:35.218Z,11.37
2023-01-05T09:48:03.027Z,23.80
2023-01-05T09:50:32.132Z,11.60
2023-01-05T09:53:01.704Z,16.27
2023-01-05T09:55:32.728Z,16.30
2023-01-05T09:58:06.035Z,13.90
2023-01-05T10:00:34.627Z,12.53
2023-01-05T10:03:07.426Z,14.63
2023-01-05T10:05:42.085Z,12.43
2023-01-05T10:08:17.997Z,14.17
2023-01-05T10:11:08.577Z,12.40
2023-01-05T10:13:39.382Z,10.87
2023-01-05T10:16:07.883Z,15.77
2023-01-05T10:18:37.673Z,12.67
2023-01-05T10:21:18.658Z,13.33
2023-01-05T10:24:01.917Z,14.03
2023-01-05T10:27:13.999Z,16.40
2023-01-05T10:29:28.514Z,14.67
2023-01-05T10:32:00.310Z,14.93
2023-01-05T10:34:48.877Z,22.77
2023-01-05T10:37:49.151Z,14.70
2023-01-05T10:40:30.051Z,16.27
2023-01-05T10:43:20.912Z,11.83
2023-01-05T10:46:19.810Z,18.93
2023-01-05T10:48:37.421Z,19.40
2023-01-05T10:51:06.886Z,18.90
2023-01-05T10:53:39.345Z,14.83
2023-01-05T10:56:12.940Z,16.60
2023-01-05T10:58:42.721Z,14.57
2023-01-05T11:01:24.193Z,16.27
2023-01-05T11:04:25.647Z,12.93
2023-01-05T11:06:44.406Z,14.10
2023-01-05T11:09:22.009Z,14.53
2023-01-05T11:11:55.715Z,18.20
2023-01-05T11:14:24.187Z,12.87
2023-01-05T11:16:54.026Z,12.43
2023-01-05T11:19:25.494Z,15.37
2023-01-05T11:21:59.808Z,12.80
2023-01-05T11:24:33.377Z,15.73
2023-01-05T11:27:03.224Z,15.17
2023-01-05T11:29:31.644Z,17.53
2023-01-05T11:32:01.912Z,11.83
2023-01-05T11:34:35.557Z,17.07
2023-01-05T11:37:08.633Z,18.93
2023-01-05T11:39:43.098Z,21.80
2023-01-05T11:42:23.374Z,13.53
2023-01-05T11:44:56.509Z,16.60
2023-01-05T11:47:30.942Z,19.00
2023-01-05T11:50:08.514Z,17.33
2023-01-05T11:52:39.335Z,13.43
2023-01-05T11:55:31.453Z,12.37
2023-01-05T11:58:21.324Z,19.23
2023-01-05T12:01:25.875Z,21.30
2023-01-05T12:04:07.201Z,10.93
2023-01-05T12:06:51.767Z,16.77
2023-01-05T12:09:32.651Z,15.97
2023-01-05T12:12:15.440Z,12.33
2023-01-05T12:14:58.722Z,18.03
2023-01-05T12:17:34.766Z,14.63
2023-01-05T12:20:14.450Z,13.53
2023-01-05T12:22:57.530Z,11.43
2023-01-05T12:25:43.124Z,12.53
2023-01-05T12:28:40.537Z,14.33
2023-01-05T12:34:39.143Z,17.17
2023-01-05T12:37:21.500Z,19.43
2023-01-05T12:40:12.053Z,14.93
2023-01-05T12:42:59.430Z,17.80
2023-01-05T12:45:49.943Z,12.60
2023-01-05T12:48:22.699Z,15.63
2023-01-05T12:50:57.243Z,19.97
2023-01-05T12:53:37.741Z,24.97
2023-01-05T12:56:16.188Z,13.07
2023-01-05T12:58:52.217Z,18.43
2023-01-05T13:01:28.811Z,9.90
2023-01-05T13:03:59.981Z,14.53
2023-01-05T13:06:32.367Z,19.73
2023-01-05T13:09:05.100Z,11.30
2023-01-05T13:11:37.932Z,14.67
2023-01-05T13:14:11.974Z,14.70
2023-01-05T13:16:44.186Z,16.73
2023-01-05T13:19:19.243Z,21.03
2023-01-05T13:21:48.746Z,13.60
2023-01-05T13:24:23.130Z,13.37
2023-01-05T13:26:51.089Z,14.90
2023-01-05T13:29:25.537Z,17.43
2023-01-05T13:32:18.485Z,16.40
2023-01-05T13:35:06.992Z,11.80
2023-01-05T13:37:50.285Z,16.33
2023-01-05T13:40:34.458Z,17.47
2023-01-05T13:43:19.979Z,13.80
2023-01-05T13:46:30.751Z,16.43
2023-01-05T13:49:21.402Z,19.70
2023-01-05T13:51:56.090Z,23.73
2023-01-05T13:54:59.988Z,15.43
2023-01-05T13:57:31.676Z,15.23
2023-01-05T14:00:09.508Z,21.97
2023-01-05T14:02:42.672Z,20.63
2023-01-05T14:05:25.466Z,17.83
2023-01-05T14:07:55.786Z,18.53
2023-01-05T14:10:25.344Z,15.80
2023-01-05T14:12:55.173Z,16.70
2023-01-05T14:15:39.259Z,14.70
2023-01-05T14:18:08.203Z,18.33
2023-01-05T14:20:40.904Z,17.83
2023-01-05T14:23:42.026Z,14.87
2023-01-05T14:26:10.474Z,14.00
2023-01-05T14:28:47.274Z,22.63
2023-01-05T14:31:55.537Z,16.63
2023-01-05T14:34:26.143Z,11.70
2023-01-05T14:37:22.113Z,14.40
2023-01-05T14:39:53.289Z,14.63
2023-01-05T14:42:31.345Z,15.97
2023-01-05T14:45:04.232Z,19.00
2023-01-05T14:47:39.267Z,16.43
2023-01-05T14:50:25.259Z,15.77
2023-01-05T14:53:00.733Z,15.17
2023-01-05T14:55:39.992Z,16.33
2023-01-05T14:58:14.147Z,15.60
2023-01-05T15:00:46.675Z,15.23
2023-01-05T15:03:22.263Z,13.90
2023-01-05T15:06:01.497Z,14.87
2023-01-05T15:09:10.592Z,14.73
2023-01-05T15:11:59.893Z,19.07
2023-01-05T15:14:45.684Z,9.73
2023-01-05T15:17:53.773Z,15.37
2023-01-05T15:20:48.481Z,20.47
2023-01-05T15:23:37.238Z,17.37
2023-01-05T15:26:25.759Z,17.87
2023-01-05T15:29:27.372Z,18.60
2023-01-05T15:31:58.877Z,18.67
2023-01-05T15:34:36.545Z,18.63
2023-01-05T15:37:12.076Z,15.83
2023-01-05T15:39:47.390Z,16.40
2023-01-05T15:42:19.696Z,18.73
2023-01-05T15:44:50.657Z,17.30
2023-01-05T15:47:20.219Z,12.87
2023-01-05T15:49:48.713Z,17.37
2023-01-05T15:52:22.521Z,17.77
2023-01-05T15:55:02.409Z,15.83
2023-01-05T15:57:30.426Z,13.80
2023-01-05T15:59:59.648Z,19.17
2023-01-05T16:02:29.164Z,16.17
2023-01-05T16:05:12.965Z,20.87
2023-01-05T16:08:06.397Z,16.07
2023-01-05T16:10:38.600Z,16.20
2023-01-05T16:13:12.294Z,19.80
2023-01-05T16:15:43.391Z,19.37
2023-01-05T16:18:19.000Z,15.37
2023-01-05T16:20:49.982Z,19.93
2023-01-05T16:23:24.960Z,22.83
2023-01-05T16:25:57.939Z,19.27
2023-01-05T16:28:27.112Z,14.23
2023-01-05T16:30:56.580Z,11.97
2023-01-05T16:33:34.855Z,18.13
2023-01-05T16:36:18.438Z,15.17
2023-01-05T16:38:46.725Z,18.27
2023-01-05T16:41:20.917Z,20.77
2023-01-05T16:43:55.229Z,22.50
2023-01-05T16:46:42.820Z,21.63
2023-01-05T16:49:32.903Z,20.17
2023-01-05T16:52:01.530Z,15.43
2023-01-05T16:54:37.256Z,19.13
2023-01-05T16:57:29.082Z,20.93
2023-01-05T16:59:57.719Z,22.80
2023-01-05T17:02:44.603Z,22.77
2023-01-05T17:05:15.465Z,20.40
2023-01-05T17:07:45.026Z,16.90
2023-01-05T17:10:22.671Z,41.03
2023-01-05T17:12:57.075Z,28.43
2023-01-05T17:15:28.036Z,19.23
2023-01-05T17:17:57.327Z,24.30
2023-01-05T17:20:27.779Z,19.63
2023-01-05T17:22:56.548Z,23.57
2023-01-05T17:25:27.909Z,17.33
2023-01-05T17:27:55.689Z,20.17
2023-01-05T17:30:24.177Z,17.10
2023-01-05T17:32:52.037Z,15.43
2023-01-05T17:35:21.103Z,16.87
2023-01-05T17:37:48.875Z,20.03
2023-01-05T17:40:19.916Z,16.37
2023-01-05T17:42:48.298Z,14.23
2023-01-05T17:45:34.630Z,14.67
2023-01-05T17:48:02.395Z,19.97
2023-01-05T17:50:33.186Z,17.20
2023-01-05T17:53:02.945Z,15.30
2023-01-05T17:55:31.505Z,23.30
2023-01-05T17:58:00.023Z,14.63
2023-01-05T18:00:35.055Z,21.13
2023-01-05T18:03:02.957Z,17.77
2023-01-05T18:05:32.056Z,20.77
2023-01-05T18:07:59.777Z,15.93
2023-01-05T18:10:29.381Z,16.83
2023-01-05T18:12:57.778Z,17.90
2023-01-05T18:18:00.577Z,12.43
2023-01-05T18:20:30.392Z,15.47
2023-01-05T18:22:59.467Z,16.00
2023-01-05T18:25:27.177Z,12.30
2023-01-05T18:27:54.945Z,14.13
2023-01-05T18:30:22.671Z,19.00
2023-01-05T18:32:50.437Z,17.47
2023-01-05T18:35:18.239Z,15.77
2023-01-05T18:37:46.054Z,17.17
2023-01-05T18:40:15.500Z,14.70
2023-01-05T18:42:43.284Z,15.90
2023-01-05T18:45:19.482Z,12.70
2023-01-05T18:47:56.692Z,16.10
2023-01-05T18:50:24.708Z,19.10
2023-01-05T18:52:52.387Z,12.43
2023-01-05T18:55:21.426Z,20.40
2023-01-05T18:57:49.147Z,14.73
2023-01-05T19:00:17.522Z,17.10
2023-01-05T19:02:45.441Z,13.37
2023-01-05T19:05:13.180Z,20.77
2023-01-05T19:07:40.944Z,19.47
2023-01-05T19:10:09.484Z,20.13
2023-01-05T19:12:38.522Z,17.43
2023-01-05T19:15:06.883Z,20.83
2023-01-05T19:17:34.634Z,26.80
2023-01-05T19:20:02.750Z,12.03
2023-01-05T19:22:30.493Z,13.10
2023-01-05T19:24:58.870Z,13.63
2023-01-05T19:27:27.952Z,14.37
2023-01-05T19:29:57.005Z,10.90
2023-01-05T19:32:24.782Z,17.03
2023-01-05T19:34:52.460Z,14.63
2023-01-05T19:37:20.168Z,16.97
2023-01-05T19:39:47.905Z,13.03
2023-01-05T19:42:15.558Z,14.10
2023-01-05T19:44:44.783Z,13.30
2023-01-05T19:47:13.842Z,16.73
2023-01-05T19:49:41.527Z,11.80
2023-01-05T19:52:09.253Z,18.47
2023-01-05T19:54:39.256Z,17.93
2023-01-05T19:57:06.967Z,19.47
2023-01-05T19:59:34.714Z,17.43
2023-01-05T20:02:02.956Z,18.50
2023-01-05T20:04:33.128Z,13.57
2023-01-05T20:07:03.965Z,12.93
2023-01-05T20:09:32.588Z,15.90
2023-01-05T20:12:13.258Z,13.80
2023-01-05T20:14:42.473Z,10.53
2023-01-05T20:17:11.781Z,13.70
2023-01-05T20:19:41.067Z,15.97
2023-01-05T20:22:13.622Z,12.03
2023-01-05T20:24:42.299Z,11.93
2023-01-05T20:27:11.893Z,29.73
2023-01-05T20:29:40.519Z,15.77
2023-01-05T20:32:12.098Z,16.03
2023-01-05T20:34:42.116Z,16.87
2023-01-05T20:37:11.185Z,16.40
2023-01-05T20:39:40.595Z,13.77
2023-01-05T20:42:10.619Z,16.57
2023-01-05T20:44:39.983Z,10.87
2023-01-05T20:47:09.208Z,8.27
2023-01-05T20:49:38.804Z,15.50
2023-01-05T20:52:09.609Z,11.77
2023-01-05T20:54:37.965Z,9.97
2023-01-05T20:57:05.835Z,11.17
2023-01-05T20:59:35.759Z,9.73
2023-01-05T21:02:12.280Z,9.87
2023-01-05T21:04:45.916Z,8.33
2023-01-05T21:07:14.995Z,9.67
2023-01-05T21:09:43.213Z,10.97
2023-01-05T21:12:11.118Z,8.67
2023-01-05T21:14:39.182Z,10.60
2023-01-05T21:17:07.279Z,10.53
2023-01-05T21:19:35.146Z,7.67
2023-01-05T21:22:03.016Z,6.20
2023-01-05T21:24:32.127Z,10.00
2023-01-05T21:27:00.163Z,7.13
2023-01-05T21:29:28.059Z,9.23
2023-01-05T21:31:57.171Z,4.70
2023-01-05T21:34:25.252Z,5.90
2023-01-05T21:36:53.474Z,5.97
2023-01-05T21:39:25.009Z,5.80
2023-01-05T21:42:12.423Z,8.30
2023-01-05T21:44:40.732Z,7.63
2023-01-05T21:47:08.997Z,11.67
2023-01-05T21:49:37.212Z,8.47
2023-01-05T21:52:23.275Z,9.83
2023-01-05T21:55:08.781Z,9.97
2023-01-05T21:57:37.758Z,8.33
2023-01-05T22:00:07.557Z,13.17
2023-01-05T22:02:35.365Z,10.47
2023-01-05T22:05:03.401Z,11.57
2023-01-05T22:07:31.074Z,8.00
2023-01-05T22:09:58.941Z,7.30
2023-01-05T22:12:26.648Z,13.67
2023-01-05T22:14:55.787Z,11.43
2023-01-05T22:17:23.928Z,8.87
2023-01-05T22:19:53.222Z,9.07
2023-01-05T22:22:21.020Z,10.07
2023-01-05T22:24:49.304Z,11.87
2023-01-05T22:27:17.216Z,8.93
2023-01-05T22:29:44.857Z,11.43
2023-01-05T22:32:13.949Z,9.23
2023-01-05T22:34:43.789Z,9.53
2023-01-05T22:37:11.597Z,8.53
2023-01-05T22:39:39.284Z,9.27
2023-01-05T22:42:07.040Z,7.37
2023-01-05T22:44:34.790Z,8.33
2023-01-05T22:47:02.494Z,6.90
2023-01-05T22:49:31.620Z,6.73
2023-01-05T22:51:59.295Z,6.90
2023-01-05T22:54:26.977Z,7.60
2023-01-05T22:56:54.649Z,4.73
2023-01-05T22:59:22.574Z,4.60
2023-01-05T23:01:50.384Z,5.10
2023-01-05T23:04:20.270Z,6.40
2023-01-05T23:06:49.325Z,6.60
2023-01-05T23:09:18.212Z,4.20
2023-01-05T23:11:46.815Z,6.23
2023-01-05T23:14:17.417Z,8.03
2023-01-05T23:16:45.328Z,7.57
2023-01-05T23:19:13.994Z,5.93
2023-01-05T23:21:41.712Z,5.73
2023-01-05T23:24:11.304Z,4.67
2023-01-05T23:26:40.149Z,4.57
2023-01-05T23:29:07.870Z,6.10
2023-01-05T23:31:35.623Z,6.43
2023-01-05T23:34:03.256Z,4.33
2023-01-05T23:36:30.989Z,4.17
2023-01-05T23:38:58.670Z,5.37
2023-01-05T23:41:27.666Z,3.63
2023-01-05T23:43:55.363Z,5.30
2023-01-05T23:46:23.733Z,5.63
2023-01-05T23:48:53.002Z,7.33
2023-01-05T23:51:20.996Z,7.47
2023-01-05T23:53:50.526Z,4.80
2023-01-05T23:56:20.209Z,6.30
2023-01-05T23:58:49.792Z,8.70
